sensor_id;sensor_type;location;lat;lon;timestamp;temperature;humidity
60473;DHT22;46318;52.716;6.444;2022-07-21T00:00:47;21.40;99.90
60473;DHT22;46318;52.716;6.444;2022-07-21T00:03:13;21.40;99.90
60473;DHT22;46318;52.716;6.444;2022-07-21T00:05:39;21.40;99.90
60473;DHT22;46318;52.716;6.444;2022-07-21T00:08:05;21.30;99.90
60473;DHT22;46318;52.716;6.444;2022-07-21T00:10:32;21.30;99.90
60473;DHT22;46318;52.716;6.444;2022-07-21T00:12:58;21.30;99.90
60473;DHT22;46318;52.716;6.444;2022-07-21T00:15:26;21.30;99.90
60473;DHT22;46318;52.716;6.444;2022-07-21T00:17:53;21.30;99.90
60473;DHT22;46318;52.716;6.444;2022-07-21T00:20:20;21.20;99.90
60473;DHT22;46318;52.716;6.444;2022-07-21T00:22:47;21.20;99.90
60473;DHT22;46318;52.716;6.444;2022-07-21T00:25:16;21.20;99.90
60473;DHT22;46318;52.716;6.444;2022-07-21T00:27:42;21.20;99.90
60473;DHT22;46318;52.716;6.444;2022-07-21T00:30:09;21.20;99.90
60473;DHT22;46318;52.716;6.444;2022-07-21T00:32:36;21.20;99.90
60473;DHT22;46318;52.716;6.444;2022-07-21T00:35:04;21.20;99.90
60473;DHT22;46318;52.716;6.444;2022-07-21T00:37:31;21.20;99.90
60473;DHT22;46318;52.716;6.444;2022-07-21T00:39:59;21.10;99.90
60473;DHT22;46318;52.716;6.444;2022-07-21T00:42:27;21.10;99.90
60473;DHT22;46318;52.716;6.444;2022-07-21T00:44:58;21.10;99.90
60473;DHT22;46318;52.716;6.444;2022-07-21T00:47:27;21.10;99.90
60473;DHT22;46318;52.716;6.444;2022-07-21T00:49:56;21.10;99.90
60473;DHT22;46318;52.716;6.444;2022-07-21T00:52:24;21.10;99.90
60473;DHT22;46318;52.716;6.444;2022-07-21T00:54:52;21.00;99.90
60473;DHT22;46318;52.716;6.444;2022-07-21T00:57:18;21.00;99.90
60473;DHT22;46318;52.716;6.444;2022-07-21T00:59:46;21.00;99.90
60473;DHT22;46318;52.716;6.444;2022-07-21T01:02:13;20.90;99.90
60473;DHT22;46318;52.716;6.444;2022-07-21T01:04:39;20.90;99.90
60473;DHT22;46318;52.716;6.444;2022-07-21T01:07:08;20.90;99.90
60473;DHT22;46318;52.716;6.444;2022-07-21T01:09:35;20.90;99.90
60473;DHT22;46318;52.716;6.444;2022-07-21T01:12:06;20.90;99.90
60473;DHT22;46318;52.716;6.444;2022-07-21T01:14:32;20.90;99.90
60473;DHT22;46318;52.716;6.444;2022-07-21T01:17:01;20.80;99.90
60473;DHT22;46318;52.716;6.444;2022-07-21T01:19:28;20.90;99.90
60473;DHT22;46318;52.716;6.444;2022-07-21T01:21:59;20.80;99.90
60473;DHT22;46318;52.716;6.444;2022-07-21T01:24:25;20.80;99.90
60473;DHT22;46318;52.716;6.444;2022-07-21T01:26:54;20.80;99.90
60473;DHT22;46318;52.716;6.444;2022-07-21T01:29:20;20.80;99.90
60473;DHT22;46318;52.716;6.444;2022-07-21T01:31:50;20.80;99.90
60473;DHT22;46318;52.716;6.444;2022-07-21T01:34:17;20.70;99.90
60473;DHT22;46318;52.716;6.444;2022-07-21T01:36:43;20.70;99.90
60473;DHT22;46318;52.716;6.444;2022-07-21T01:39:10;20.70;99.90
60473;DHT22;46318;52.716;6.444;2022-07-21T01:41:56;20.70;99.90
60473;DHT22;46318;52.716;6.444;2022-07-21T01:44:22;20.70;99.90
60473;DHT22;46318;52.716;6.444;2022-07-21T01:46:50;20.60;99.90
60473;DHT22;46318;52.716;6.444;2022-07-21T01:49:19;20.60;99.90
60473;DHT22;46318;52.716;6.444;2022-07-21T01:51:48;20.60;99.90
60473;DHT22;46318;52.716;6.444;2022-07-21T01:54:15;20.60;99.90
60473;DHT22;46318;52.716;6.444;2022-07-21T01:56:41;20.60;99.90
60473;DHT22;46318;52.716;6.444;2022-07-21T01:59:08;20.60;99.90
60473;DHT22;46318;52.716;6.444;2022-07-21T02:01:34;20.60;99.90
60473;DHT22;46318;52.716;6.444;2022-07-21T02:04:03;20.60;99.90
60473;DHT22;46318;52.716;6.444;2022-07-21T02:06:30;20.60;99.90
60473;DHT22;46318;52.716;6.444;2022-07-21T02:08:57;20.60;99.90
60473;DHT22;46318;52.716;6.444;2022-07-21T02:11:26;20.50;99.90
60473;DHT22;46318;52.716;6.444;2022-07-21T02:13:56;20.60;99.90
60473;DHT22;46318;52.716;6.444;2022-07-21T02:16:22;20.50;99.90
60473;DHT22;46318;52.716;6.444;2022-07-21T02:18:51;20.50;99.90
60473;DHT22;46318;52.716;6.444;2022-07-21T02:21:17;20.50;99.90
60473;DHT22;46318;52.716;6.444;2022-07-21T02:23:45;20.50;99.90
60473;DHT22;46318;52.716;6.444;2022-07-21T02:26:11;20.50;99.90
60473;DHT22;46318;52.716;6.444;2022-07-21T02:28:38;20.50;99.90
60473;DHT22;46318;52.716;6.444;2022-07-21T02:31:06;20.50;99.90
60473;DHT22;46318;52.716;6.444;2022-07-21T02:33:33;20.50;99.90
60473;DHT22;46318;52.716;6.444;2022-07-21T02:35:59;20.50;99.90
60473;DHT22;46318;52.716;6.444;2022-07-21T02:38:28;20.50;99.90
60473;DHT22;46318;52.716;6.444;2022-07-21T02:40:54;20.50;99.90
60473;DHT22;46318;52.716;6.444;2022-07-21T02:43:20;20.50;99.90
60473;DHT22;46318;52.716;6.444;2022-07-21T02:45:46;20.50;99.90
60473;DHT22;46318;52.716;6.444;2022-07-21T02:48:12;20.50;99.90
60473;DHT22;46318;52.716;6.444;2022-07-21T02:50:41;20.40;99.90
60473;DHT22;46318;52.716;6.444;2022-07-21T02:53:13;20.40;99.90
60473;DHT22;46318;52.716;6.444;2022-07-21T02:55:43;20.40;99.90
60473;DHT22;46318;52.716;6.444;2022-07-21T02:58:12;20.40;99.90
60473;DHT22;46318;52.716;6.444;2022-07-21T03:00:41;20.40;99.90
60473;DHT22;46318;52.716;6.444;2022-07-21T03:03:09;20.40;99.90
60473;DHT22;46318;52.716;6.444;2022-07-21T03:05:35;20.30;99.90
60473;DHT22;46318;52.716;6.444;2022-07-21T03:08:02;20.30;99.90
60473;DHT22;46318;52.716;6.444;2022-07-21T03:10:29;20.30;99.90
60473;DHT22;46318;52.716;6.444;2022-07-21T03:12:55;20.30;99.90
60473;DHT22;46318;52.716;6.444;2022-07-21T03:15:21;20.30;99.90
60473;DHT22;46318;52.716;6.444;2022-07-21T03:17:47;20.30;99.90
60473;DHT22;46318;52.716;6.444;2022-07-21T03:20:14;20.20;99.90
60473;DHT22;46318;52.716;6.444;2022-07-21T03:22:40;20.20;99.90
60473;DHT22;46318;52.716;6.444;2022-07-21T03:25:07;20.20;99.90
60473;DHT22;46318;52.716;6.444;2022-07-21T03:27:33;20.20;99.90
60473;DHT22;46318;52.716;6.444;2022-07-21T03:30:09;20.20;99.90
60473;DHT22;46318;52.716;6.444;2022-07-21T03:32:36;20.20;99.90
60473;DHT22;46318;52.716;6.444;2022-07-21T03:35:03;20.10;99.90
60473;DHT22;46318;52.716;6.444;2022-07-21T03:37:30;20.10;99.90
60473;DHT22;46318;52.716;6.444;2022-07-21T03:39:56;20.10;99.90
60473;DHT22;46318;52.716;6.444;2022-07-21T03:42:23;20.00;99.90
60473;DHT22;46318;52.716;6.444;2022-07-21T03:44:49;20.00;99.90
60473;DHT22;46318;52.716;6.444;2022-07-21T03:47:15;20.00;99.90
60473;DHT22;46318;52.716;6.444;2022-07-21T03:49:44;20.00;99.90
60473;DHT22;46318;52.716;6.444;2022-07-21T03:52:10;20.00;99.90
60473;DHT22;46318;52.716;6.444;2022-07-21T03:54:36;20.00;99.90
60473;DHT22;46318;52.716;6.444;2022-07-21T03:57:01;20.00;99.90
60473;DHT22;46318;52.716;6.444;2022-07-21T03:59:27;20.00;99.90
60473;DHT22;46318;52.716;6.444;2022-07-21T04:01:53;19.90;99.90
60473;DHT22;46318;52.716;6.444;2022-07-21T04:04:19;19.90;99.90
60473;DHT22;46318;52.716;6.444;2022-07-21T04:06:45;19.90;99.90
60473;DHT22;46318;52.716;6.444;2022-07-21T04:09:11;19.90;99.90
60473;DHT22;46318;52.716;6.444;2022-07-21T04:11:38;19.90;99.90
60473;DHT22;46318;52.716;6.444;2022-07-21T04:14:04;19.90;99.90
60473;DHT22;46318;52.716;6.444;2022-07-21T04:16:30;19.90;99.90
60473;DHT22;46318;52.716;6.444;2022-07-21T04:18:56;19.90;99.90
60473;DHT22;46318;52.716;6.444;2022-07-21T04:21:22;19.90;99.90
60473;DHT22;46318;52.716;6.444;2022-07-21T04:23:48;19.90;99.90
60473;DHT22;46318;52.716;6.444;2022-07-21T04:26:14;19.90;99.90
60473;DHT22;46318;52.716;6.444;2022-07-21T04:28:40;19.90;99.90
60473;DHT22;46318;52.716;6.444;2022-07-21T04:31:07;19.90;99.90
60473;DHT22;46318;52.716;6.444;2022-07-21T04:33:33;19.90;99.90
60473;DHT22;46318;52.716;6.444;2022-07-21T04:35:59;19.90;99.90
60473;DHT22;46318;52.716;6.444;2022-07-21T04:38:25;19.90;99.90
60473;DHT22;46318;52.716;6.444;2022-07-21T04:40:51;19.90;99.90
60473;DHT22;46318;52.716;6.444;2022-07-21T04:43:17;19.90;99.90
60473;DHT22;46318;52.716;6.444;2022-07-21T04:45:43;19.90;99.90
60473;DHT22;46318;52.716;6.444;2022-07-21T04:48:09;19.90;99.90
60473;DHT22;46318;52.716;6.444;2022-07-21T04:50:35;19.90;99.90
60473;DHT22;46318;52.716;6.444;2022-07-21T04:53:00;19.90;99.90
60473;DHT22;46318;52.716;6.444;2022-07-21T04:55:27;19.90;99.90
60473;DHT22;46318;52.716;6.444;2022-07-21T04:57:53;19.90;99.90
60473;DHT22;46318;52.716;6.444;2022-07-21T05:00:23;19.90;99.90
60473;DHT22;46318;52.716;6.444;2022-07-21T05:02:50;19.90;99.90
60473;DHT22;46318;52.716;6.444;2022-07-21T05:05:18;19.90;99.90
60473;DHT22;46318;52.716;6.444;2022-07-21T05:07:44;19.90;99.90
60473;DHT22;46318;52.716;6.444;2022-07-21T05:10:14;19.90;99.90
60473;DHT22;46318;52.716;6.444;2022-07-21T05:12:42;19.90;99.90
60473;DHT22;46318;52.716;6.444;2022-07-21T05:15:08;19.90;99.90
60473;DHT22;46318;52.716;6.444;2022-07-21T05:17:36;19.90;99.90
60473;DHT22;46318;52.716;6.444;2022-07-21T05:20:04;19.90;99.90
60473;DHT22;46318;52.716;6.444;2022-07-21T05:22:31;19.90;99.90
60473;DHT22;46318;52.716;6.444;2022-07-21T05:24:57;19.90;99.90
60473;DHT22;46318;52.716;6.444;2022-07-21T05:27:23;19.90;99.90
60473;DHT22;46318;52.716;6.444;2022-07-21T05:29:49;19.90;99.90
60473;DHT22;46318;52.716;6.444;2022-07-21T05:32:15;19.90;99.90
60473;DHT22;46318;52.716;6.444;2022-07-21T05:34:41;19.90;99.90
60473;DHT22;46318;52.716;6.444;2022-07-21T05:37:07;19.90;99.90
60473;DHT22;46318;52.716;6.444;2022-07-21T05:39:33;19.90;99.90
60473;DHT22;46318;52.716;6.444;2022-07-21T05:41:59;19.90;99.90
60473;DHT22;46318;52.716;6.444;2022-07-21T05:44:24;19.90;99.90
60473;DHT22;46318;52.716;6.444;2022-07-21T05:46:50;19.90;99.90
60473;DHT22;46318;52.716;6.444;2022-07-21T05:49:16;20.00;99.90
60473;DHT22;46318;52.716;6.444;2022-07-21T05:51:42;20.00;99.90
60473;DHT22;46318;52.716;6.444;2022-07-21T05:54:08;20.00;99.90
60473;DHT22;46318;52.716;6.444;2022-07-21T05:56:34;20.00;99.90
60473;DHT22;46318;52.716;6.444;2022-07-21T05:58:59;20.00;99.90
60473;DHT22;46318;52.716;6.444;2022-07-21T06:01:26;20.00;99.90
60473;DHT22;46318;52.716;6.444;2022-07-21T06:03:52;20.00;99.90
60473;DHT22;46318;52.716;6.444;2022-07-21T06:06:18;20.00;99.90
60473;DHT22;46318;52.716;6.444;2022-07-21T06:08:46;20.00;99.90
60473;DHT22;46318;52.716;6.444;2022-07-21T06:11:16;20.00;99.90
60473;DHT22;46318;52.716;6.444;2022-07-21T06:13:44;20.00;99.90
60473;DHT22;46318;52.716;6.444;2022-07-21T06:16:10;20.00;99.90
60473;DHT22;46318;52.716;6.444;2022-07-21T06:18:37;20.00;99.90
60473;DHT22;46318;52.716;6.444;2022-07-21T06:21:04;20.00;99.90
60473;DHT22;46318;52.716;6.444;2022-07-21T06:23:31;19.90;99.90
60473;DHT22;46318;52.716;6.444;2022-07-21T06:25:57;20.00;99.90
60473;DHT22;46318;52.716;6.444;2022-07-21T06:28:23;20.00;99.90
60473;DHT22;46318;52.716;6.444;2022-07-21T06:30:50;19.90;99.90
60473;DHT22;46318;52.716;6.444;2022-07-21T06:33:17;19.90;99.90
60473;DHT22;46318;52.716;6.444;2022-07-21T06:35:44;19.90;99.90
60473;DHT22;46318;52.716;6.444;2022-07-21T06:38:10;20.00;99.90
60473;DHT22;46318;52.716;6.444;2022-07-21T06:40:36;20.00;99.90
60473;DHT22;46318;52.716;6.444;2022-07-21T06:43:02;20.00;99.90
60473;DHT22;46318;52.716;6.444;2022-07-21T06:45:28;20.00;99.90
60473;DHT22;46318;52.716;6.444;2022-07-21T06:48:05;20.00;99.90
60473;DHT22;46318;52.716;6.444;2022-07-21T06:50:33;20.00;99.90
60473;DHT22;46318;52.716;6.444;2022-07-21T06:53:00;20.00;99.90
60473;DHT22;46318;52.716;6.444;2022-07-21T06:55:26;20.00;99.90
60473;DHT22;46318;52.716;6.444;2022-07-21T06:57:53;20.00;99.90
60473;DHT22;46318;52.716;6.444;2022-07-21T07:00:19;20.00;99.90
60473;DHT22;46318;52.716;6.444;2022-07-21T07:02:45;20.10;99.90
60473;DHT22;46318;52.716;6.444;2022-07-21T07:05:12;20.10;99.90
60473;DHT22;46318;52.716;6.444;2022-07-21T07:07:38;20.20;99.90
60473;DHT22;46318;52.716;6.444;2022-07-21T07:10:05;20.20;99.90
60473;DHT22;46318;52.716;6.444;2022-07-21T07:12:31;20.20;99.90
60473;DHT22;46318;52.716;6.444;2022-07-21T07:14:57;20.20;99.90
60473;DHT22;46318;52.716;6.444;2022-07-21T07:17:22;20.20;99.90
60473;DHT22;46318;52.716;6.444;2022-07-21T07:19:48;20.30;99.90
60473;DHT22;46318;52.716;6.444;2022-07-21T07:22:15;20.30;99.90
60473;DHT22;46318;52.716;6.444;2022-07-21T07:24:41;20.30;99.90
60473;DHT22;46318;52.716;6.444;2022-07-21T07:27:07;20.40;99.90
60473;DHT22;46318;52.716;6.444;2022-07-21T07:29:32;20.40;99.90
60473;DHT22;46318;52.716;6.444;2022-07-21T07:31:59;20.40;99.90
60473;DHT22;46318;52.716;6.444;2022-07-21T07:34:25;20.40;99.90
60473;DHT22;46318;52.716;6.444;2022-07-21T07:36:52;20.40;99.90
60473;DHT22;46318;52.716;6.444;2022-07-21T07:39:18;20.60;99.90
60473;DHT22;46318;52.716;6.444;2022-07-21T07:41:46;20.70;99.90
60473;DHT22;46318;52.716;6.444;2022-07-21T07:44:12;20.80;99.90
60473;DHT22;46318;52.716;6.444;2022-07-21T07:46:38;20.80;99.90
60473;DHT22;46318;52.716;6.444;2022-07-21T07:49:04;20.90;99.90
60473;DHT22;46318;52.716;6.444;2022-07-21T07:51:29;21.00;99.90
60473;DHT22;46318;52.716;6.444;2022-07-21T07:53:55;21.00;99.90
60473;DHT22;46318;52.716;6.444;2022-07-21T07:56:21;21.10;99.90
60473;DHT22;46318;52.716;6.444;2022-07-21T07:58:47;21.20;99.90
60473;DHT22;46318;52.716;6.444;2022-07-21T08:01:13;21.30;99.90
60473;DHT22;46318;52.716;6.444;2022-07-21T08:03:41;21.40;99.90
60473;DHT22;46318;52.716;6.444;2022-07-21T08:06:07;21.50;99.90
60473;DHT22;46318;52.716;6.444;2022-07-21T08:08:33;21.60;99.90
60473;DHT22;46318;52.716;6.444;2022-07-21T08:10:59;21.70;99.90
60473;DHT22;46318;52.716;6.444;2022-07-21T08:13:25;21.70;99.90
60473;DHT22;46318;52.716;6.444;2022-07-21T08:15:51;21.80;99.90
60473;DHT22;46318;52.716;6.444;2022-07-21T08:18:18;21.80;99.90
60473;DHT22;46318;52.716;6.444;2022-07-21T08:20:46;21.80;99.90
60473;DHT22;46318;52.716;6.444;2022-07-21T08:23:12;21.80;99.90
60473;DHT22;46318;52.716;6.444;2022-07-21T08:25:39;21.80;99.90
60473;DHT22;46318;52.716;6.444;2022-07-21T08:28:06;21.80;99.90
60473;DHT22;46318;52.716;6.444;2022-07-21T08:30:32;21.80;99.90
60473;DHT22;46318;52.716;6.444;2022-07-21T08:32:58;21.80;99.90
60473;DHT22;46318;52.716;6.444;2022-07-21T08:35:25;22.00;99.90
60473;DHT22;46318;52.716;6.444;2022-07-21T08:38:00;22.10;99.90
60473;DHT22;46318;52.716;6.444;2022-07-21T08:40:33;22.10;99.90
60473;DHT22;46318;52.716;6.444;2022-07-21T08:43:01;22.20;99.90
60473;DHT22;46318;52.716;6.444;2022-07-21T08:45:27;22.40;99.90
60473;DHT22;46318;52.716;6.444;2022-07-21T08:47:56;22.50;99.90
60473;DHT22;46318;52.716;6.444;2022-07-21T08:50:27;22.70;99.90
60473;DHT22;46318;52.716;6.444;2022-07-21T08:52:55;22.70;99.90
60473;DHT22;46318;52.716;6.444;2022-07-21T08:55:21;22.70;99.90
60473;DHT22;46318;52.716;6.444;2022-07-21T08:57:48;22.80;99.90
60473;DHT22;46318;52.716;6.444;2022-07-21T09:00:13;22.80;99.90
60473;DHT22;46318;52.716;6.444;2022-07-21T09:02:41;22.80;99.90
60473;DHT22;46318;52.716;6.444;2022-07-21T09:05:09;22.80;99.90
60473;DHT22;46318;52.716;6.444;2022-07-21T09:07:57;22.80;99.90
60473;DHT22;46318;52.716;6.444;2022-07-21T09:10:26;22.80;99.90
60473;DHT22;46318;52.716;6.444;2022-07-21T09:12:55;22.80;99.90
60473;DHT22;46318;52.716;6.444;2022-07-21T09:15:26;22.70;99.90
60473;DHT22;46318;52.716;6.444;2022-07-21T09:18:06;22.70;99.90
60473;DHT22;46318;52.716;6.444;2022-07-21T09:20:33;22.60;99.90
60473;DHT22;46318;52.716;6.444;2022-07-21T09:25:45;22.70;99.90
60473;DHT22;46318;52.716;6.444;2022-07-21T09:33:32;22.60;99.90
60473;DHT22;46318;52.716;6.444;2022-07-21T09:36:15;22.60;99.90
60473;DHT22;46318;52.716;6.444;2022-07-21T09:41:19;22.60;99.90
60473;DHT22;46318;52.716;6.444;2022-07-21T09:43:48;22.60;99.90
60473;DHT22;46318;52.716;6.444;2022-07-21T09:46:22;22.60;99.90
60473;DHT22;46318;52.716;6.444;2022-07-21T09:48:56;22.60;99.90
60473;DHT22;46318;52.716;6.444;2022-07-21T09:51:30;22.80;99.90
60473;DHT22;46318;52.716;6.444;2022-07-21T09:54:05;22.80;99.90
60473;DHT22;46318;52.716;6.444;2022-07-21T09:56:35;22.80;99.90
60473;DHT22;46318;52.716;6.444;2022-07-21T09:59:07;22.90;99.90
60473;DHT22;46318;52.716;6.444;2022-07-21T10:01:34;23.00;99.90
60473;DHT22;46318;52.716;6.444;2022-07-21T10:04:04;23.00;99.90
60473;DHT22;46318;52.716;6.444;2022-07-21T10:06:36;23.10;99.90
60473;DHT22;46318;52.716;6.444;2022-07-21T10:09:05;23.10;99.60
60473;DHT22;46318;52.716;6.444;2022-07-21T10:11:32;23.10;99.70
60473;DHT22;46318;52.716;6.444;2022-07-21T10:13:59;23.20;99.50
60473;DHT22;46318;52.716;6.444;2022-07-21T10:16:27;23.20;99.00
60473;DHT22;46318;52.716;6.444;2022-07-21T10:19:19;23.10;99.10
60473;DHT22;46318;52.716;6.444;2022-07-21T10:24:51;23.10;99.70
60473;DHT22;46318;52.716;6.444;2022-07-21T10:27:17;23.10;99.90
60473;DHT22;46318;52.716;6.444;2022-07-21T10:32:32;23.10;99.60
60473;DHT22;46318;52.716;6.444;2022-07-21T10:35:28;23.10;99.90
60473;DHT22;46318;52.716;6.444;2022-07-21T10:37:56;23.10;99.90
60473;DHT22;46318;52.716;6.444;2022-07-21T10:45:41;23.00;99.90
60473;DHT22;46318;52.716;6.444;2022-07-21T10:51:10;22.70;99.90
60473;DHT22;46318;52.716;6.444;2022-07-21T10:53:38;22.60;99.90
60473;DHT22;46318;52.716;6.444;2022-07-21T10:56:05;22.50;99.90
60473;DHT22;46318;52.716;6.444;2022-07-21T10:58:33;22.50;99.90
60473;DHT22;46318;52.716;6.444;2022-07-21T11:01:08;22.50;99.90
60473;DHT22;46318;52.716;6.444;2022-07-21T11:03:45;22.40;99.90
60473;DHT22;46318;52.716;6.444;2022-07-21T11:08:47;22.40;99.90
60473;DHT22;46318;52.716;6.444;2022-07-21T11:11:19;22.40;99.90
60473;DHT22;46318;52.716;6.444;2022-07-21T11:14:00;22.40;99.90
60473;DHT22;46318;52.716;6.444;2022-07-21T11:19:33;22.40;99.90
60473;DHT22;46318;52.716;6.444;2022-07-21T11:22:27;22.40;99.90
60473;DHT22;46318;52.716;6.444;2022-07-21T11:24:59;22.40;99.90
60473;DHT22;46318;52.716;6.444;2022-07-21T11:27:28;22.40;99.90
60473;DHT22;46318;52.716;6.444;2022-07-21T11:30:05;22.50;99.90
60473;DHT22;46318;52.716;6.444;2022-07-21T11:32:34;22.50;99.90
60473;DHT22;46318;52.716;6.444;2022-07-21T11:35:05;22.40;99.90
60473;DHT22;46318;52.716;6.444;2022-07-21T11:37:38;22.40;99.90
60473;DHT22;46318;52.716;6.444;2022-07-21T11:42:41;22.40;99.90
60473;DHT22;46318;52.716;6.444;2022-07-21T11:45:11;22.30;99.90
60473;DHT22;46318;52.716;6.444;2022-07-21T11:47:37;22.30;99.90
60473;DHT22;46318;52.716;6.444;2022-07-21T11:50:06;22.30;99.90
60473;DHT22;46318;52.716;6.444;2022-07-21T11:52:35;22.30;99.90
60473;DHT22;46318;52.716;6.444;2022-07-21T11:55:07;22.30;99.90
60473;DHT22;46318;52.716;6.444;2022-07-21T11:57:44;22.30;99.90
60473;DHT22;46318;52.716;6.444;2022-07-21T12:00:11;22.20;99.90
60473;DHT22;46318;52.716;6.444;2022-07-21T12:02:38;22.10;99.90
60473;DHT22;46318;52.716;6.444;2022-07-21T12:05:05;22.10;99.90
60473;DHT22;46318;52.716;6.444;2022-07-21T12:07:42;22.10;99.90
60473;DHT22;46318;52.716;6.444;2022-07-21T12:10:21;22.00;99.90
60473;DHT22;46318;52.716;6.444;2022-07-21T12:12:56;22.00;99.90
60473;DHT22;46318;52.716;6.444;2022-07-21T12:15:32;22.00;99.90
60473;DHT22;46318;52.716;6.444;2022-07-21T12:18:19;22.00;99.90
60473;DHT22;46318;52.716;6.444;2022-07-21T12:20:48;22.10;99.90
60473;DHT22;46318;52.716;6.444;2022-07-21T12:23:26;22.00;99.90
60473;DHT22;46318;52.716;6.444;2022-07-21T12:25:57;22.00;99.90
60473;DHT22;46318;52.716;6.444;2022-07-21T12:28:46;22.00;99.90
60473;DHT22;46318;52.716;6.444;2022-07-21T12:31:17;22.00;99.90
60473;DHT22;46318;52.716;6.444;2022-07-21T12:33:49;22.00;99.90
60473;DHT22;46318;52.716;6.444;2022-07-21T12:36:16;21.90;99.90
60473;DHT22;46318;52.716;6.444;2022-07-21T12:38:46;22.00;99.90
60473;DHT22;46318;52.716;6.444;2022-07-21T12:41:19;22.00;99.90
60473;DHT22;46318;52.716;6.444;2022-07-21T12:43:58;22.00;99.90
60473;DHT22;46318;52.716;6.444;2022-07-21T12:46:30;22.10;99.90
60473;DHT22;46318;52.716;6.444;2022-07-21T12:49:04;22.10;99.90
60473;DHT22;46318;52.716;6.444;2022-07-21T12:51:31;22.20;99.90
60473;DHT22;46318;52.716;6.444;2022-07-21T12:53:57;22.20;99.90
60473;DHT22;46318;52.716;6.444;2022-07-21T12:56:27;22.20;99.90
60473;DHT22;46318;52.716;6.444;2022-07-21T12:58:56;22.20;99.90
60473;DHT22;46318;52.716;6.444;2022-07-21T13:01:24;22.20;99.90
60473;DHT22;46318;52.716;6.444;2022-07-21T13:03:52;22.10;99.90
60473;DHT22;46318;52.716;6.444;2022-07-21T13:06:18;22.10;99.90
60473;DHT22;46318;52.716;6.444;2022-07-21T13:08:46;22.10;99.90
60473;DHT22;46318;52.716;6.444;2022-07-21T13:11:14;22.10;99.90
60473;DHT22;46318;52.716;6.444;2022-07-21T13:13:44;22.10;99.90
60473;DHT22;46318;52.716;6.444;2022-07-21T13:16:11;22.10;99.90
60473;DHT22;46318;52.716;6.444;2022-07-21T13:18:37;22.00;99.90
60473;DHT22;46318;52.716;6.444;2022-07-21T13:21:04;22.00;99.90
60473;DHT22;46318;52.716;6.444;2022-07-21T13:23:30;22.00;99.90
60473;DHT22;46318;52.716;6.444;2022-07-21T13:25:56;22.00;99.90
60473;DHT22;46318;52.716;6.444;2022-07-21T13:28:22;22.00;99.90
60473;DHT22;46318;52.716;6.444;2022-07-21T13:30:48;22.00;99.90
60473;DHT22;46318;52.716;6.444;2022-07-21T13:33:14;22.00;99.90
60473;DHT22;46318;52.716;6.444;2022-07-21T13:35:40;22.10;99.90
60473;DHT22;46318;52.716;6.444;2022-07-21T13:38:11;22.10;99.90
60473;DHT22;46318;52.716;6.444;2022-07-21T13:40:38;22.10;99.90
60473;DHT22;46318;52.716;6.444;2022-07-21T13:43:05;22.10;99.90
60473;DHT22;46318;52.716;6.444;2022-07-21T13:45:31;22.10;99.90
60473;DHT22;46318;52.716;6.444;2022-07-21T13:47:57;22.20;99.90
60473;DHT22;46318;52.716;6.444;2022-07-21T13:50:24;22.20;99.90
60473;DHT22;46318;52.716;6.444;2022-07-21T13:52:50;22.20;99.90
60473;DHT22;46318;52.716;6.444;2022-07-21T13:55:16;22.20;99.90
60473;DHT22;46318;52.716;6.444;2022-07-21T13:57:42;22.20;99.90
60473;DHT22;46318;52.716;6.444;2022-07-21T14:00:11;22.20;99.90
60473;DHT22;46318;52.716;6.444;2022-07-21T14:02:37;22.20;99.90
60473;DHT22;46318;52.716;6.444;2022-07-21T14:05:04;22.20;99.90
60473;DHT22;46318;52.716;6.444;2022-07-21T14:07:30;22.20;99.90
60473;DHT22;46318;52.716;6.444;2022-07-21T14:09:57;22.30;99.90
60473;DHT22;46318;52.716;6.444;2022-07-21T14:12:23;22.30;99.90
60473;DHT22;46318;52.716;6.444;2022-07-21T14:14:49;22.30;99.90
60473;DHT22;46318;52.716;6.444;2022-07-21T14:17:16;22.30;99.90
60473;DHT22;46318;52.716;6.444;2022-07-21T14:19:43;22.30;99.90
60473;DHT22;46318;52.716;6.444;2022-07-21T14:22:12;22.30;99.90
60473;DHT22;46318;52.716;6.444;2022-07-21T14:24:39;22.30;99.90
60473;DHT22;46318;52.716;6.444;2022-07-21T14:27:23;22.40;99.90
60473;DHT22;46318;52.716;6.444;2022-07-21T14:29:49;22.40;99.90
60473;DHT22;46318;52.716;6.444;2022-07-21T14:32:17;22.40;99.90
60473;DHT22;46318;52.716;6.444;2022-07-21T14:34:51;22.40;99.90
60473;DHT22;46318;52.716;6.444;2022-07-21T14:37:18;22.40;99.90
60473;DHT22;46318;52.716;6.444;2022-07-21T14:39:45;22.40;99.90
60473;DHT22;46318;52.716;6.444;2022-07-21T14:42:12;22.30;99.90
60473;DHT22;46318;52.716;6.444;2022-07-21T14:44:38;22.40;99.90
60473;DHT22;46318;52.716;6.444;2022-07-21T14:47:05;22.30;99.90
60473;DHT22;46318;52.716;6.444;2022-07-21T14:49:33;22.30;99.90
60473;DHT22;46318;52.716;6.444;2022-07-21T14:52:00;22.30;99.90
60473;DHT22;46318;52.716;6.444;2022-07-21T14:54:26;22.30;99.90
60473;DHT22;46318;52.716;6.444;2022-07-21T14:56:52;22.40;99.90
60473;DHT22;46318;52.716;6.444;2022-07-21T14:59:18;22.40;99.90
60473;DHT22;46318;52.716;6.444;2022-07-21T15:01:44;22.40;99.90
60473;DHT22;46318;52.716;6.444;2022-07-21T15:04:09;22.40;99.90
60473;DHT22;46318;52.716;6.444;2022-07-21T15:06:35;22.40;99.90
60473;DHT22;46318;52.716;6.444;2022-07-21T15:09:02;22.40;99.90
60473;DHT22;46318;52.716;6.444;2022-07-21T15:11:29;22.40;99.90
60473;DHT22;46318;52.716;6.444;2022-07-21T15:13:54;22.40;99.90
60473;DHT22;46318;52.716;6.444;2022-07-21T15:16:21;22.40;99.90
60473;DHT22;46318;52.716;6.444;2022-07-21T15:18:47;22.40;99.90
60473;DHT22;46318;52.716;6.444;2022-07-21T15:21:13;22.40;99.90
60473;DHT22;46318;52.716;6.444;2022-07-21T15:23:39;22.40;99.90
60473;DHT22;46318;52.716;6.444;2022-07-21T15:26:05;22.40;99.90
60473;DHT22;46318;52.716;6.444;2022-07-21T15:28:31;22.40;99.90
60473;DHT22;46318;52.716;6.444;2022-07-21T15:30:56;22.40;99.90
60473;DHT22;46318;52.716;6.444;2022-07-21T15:33:22;22.40;99.90
60473;DHT22;46318;52.716;6.444;2022-07-21T15:35:48;22.30;99.90
60473;DHT22;46318;52.716;6.444;2022-07-21T15:38:22;22.30;99.90
60473;DHT22;46318;52.716;6.444;2022-07-21T15:40:51;22.30;99.90
60473;DHT22;46318;52.716;6.444;2022-07-21T15:43:18;22.30;99.90
60473;DHT22;46318;52.716;6.444;2022-07-21T15:45:45;22.30;99.90
60473;DHT22;46318;52.716;6.444;2022-07-21T15:48:11;22.30;99.90
60473;DHT22;46318;52.716;6.444;2022-07-21T15:50:37;22.40;99.90
60473;DHT22;46318;52.716;6.444;2022-07-21T15:53:03;22.40;99.90
60473;DHT22;46318;52.716;6.444;2022-07-21T15:55:30;22.40;99.90
60473;DHT22;46318;52.716;6.444;2022-07-21T15:57:59;22.40;99.90
60473;DHT22;46318;52.716;6.444;2022-07-21T16:00:25;22.40;99.90
60473;DHT22;46318;52.716;6.444;2022-07-21T16:02:51;22.40;99.90
60473;DHT22;46318;52.716;6.444;2022-07-21T16:05:19;22.30;99.90
60473;DHT22;46318;52.716;6.444;2022-07-21T16:07:48;22.30;99.90